sensor_id;sensor_type;location;lat;lon;timestamp;temperature;humidity
44215;DHT22;29884;47.450;19.124;2023-06-14T00:00:21;14.50;99.90
44215;DHT22;29884;47.450;19.124;2023-06-14T00:02:48;14.50;99.90
44215;DHT22;29884;47.450;19.124;2023-06-14T00:05:14;14.50;99.90
44215;DHT22;29884;47.450;19.124;2023-06-14T00:07:41;14.40;99.90
44215;DHT22;29884;47.450;19.124;2023-06-14T00:10:11;14.40;99.90
44215;DHT22;29884;47.450;19.124;2023-06-14T00:12:38;14.40;99.90
44215;DHT22;29884;47.450;19.124;2023-06-14T00:15:05;14.20;99.90
44215;DHT22;29884;47.450;19.124;2023-06-14T00:17:31;14.20;99.90
44215;DHT22;29884;47.450;19.124;2023-06-14T00:20:02;14.20;99.90
44215;DHT22;29884;47.450;19.124;2023-06-14T00:22:30;14.10;99.90
44215;DHT22;29884;47.450;19.124;2023-06-14T00:24:56;14.10;99.90
44215;DHT22;29884;47.450;19.124;2023-06-14T00:27:22;14.10;99.90
44215;DHT22;29884;47.450;19.124;2023-06-14T00:29:48;14.10;99.90
44215;DHT22;29884;47.450;19.124;2023-06-14T00:32:14;14.10;99.90
44215;DHT22;29884;47.450;19.124;2023-06-14T00:34:40;14.10;99.90
44215;DHT22;29884;47.450;19.124;2023-06-14T00:37:06;14.00;99.90
44215;DHT22;29884;47.450;19.124;2023-06-14T00:39:32;13.90;99.90
44215;DHT22;29884;47.450;19.124;2023-06-14T00:41:58;13.90;99.90
44215;DHT22;29884;47.450;19.124;2023-06-14T00:44:24;13.80;99.90
44215;DHT22;29884;47.450;19.124;2023-06-14T00:46:50;13.80;99.90
44215;DHT22;29884;47.450;19.124;2023-06-14T00:49:18;13.80;99.90
44215;DHT22;29884;47.450;19.124;2023-06-14T00:51:45;13.70;99.90
44215;DHT22;29884;47.450;19.124;2023-06-14T00:54:11;13.70;99.90
44215;DHT22;29884;47.450;19.124;2023-06-14T00:56:37;13.60;99.90
44215;DHT22;29884;47.450;19.124;2023-06-14T00:59:03;13.70;99.90
44215;DHT22;29884;47.450;19.124;2023-06-14T01:01:30;13.70;99.90
44215;DHT22;29884;47.450;19.124;2023-06-14T01:04:00;13.70;99.90
44215;DHT22;29884;47.450;19.124;2023-06-14T01:07:05;13.70;99.90
44215;DHT22;29884;47.450;19.124;2023-06-14T01:15:20;13.50;99.90
44215;DHT22;29884;47.450;19.124;2023-06-14T01:17:48;13.40;99.90
44215;DHT22;29884;47.450;19.124;2023-06-14T01:20:17;13.30;99.90
44215;DHT22;29884;47.450;19.124;2023-06-14T01:22:52;13.30;99.90
44215;DHT22;29884;47.450;19.124;2023-06-14T01:25:22;13.30;99.90
44215;DHT22;29884;47.450;19.124;2023-06-14T01:27:55;13.30;99.90
44215;DHT22;29884;47.450;19.124;2023-06-14T01:30:23;13.30;99.90
44215;DHT22;29884;47.450;19.124;2023-06-14T01:32:52;13.30;99.90
44215;DHT22;29884;47.450;19.124;2023-06-14T01:35:19;13.30;99.90
44215;DHT22;29884;47.450;19.124;2023-06-14T01:37:47;13.30;99.90
44215;DHT22;29884;47.450;19.124;2023-06-14T01:40:14;13.20;99.90
44215;DHT22;29884;47.450;19.124;2023-06-14T01:42:41;13.20;99.90
44215;DHT22;29884;47.450;19.124;2023-06-14T01:45:09;13.20;99.90
44215;DHT22;29884;47.450;19.124;2023-06-14T01:47:35;13.20;99.90
44215;DHT22;29884;47.450;19.124;2023-06-14T01:50:02;13.20;99.90
44215;DHT22;29884;47.450;19.124;2023-06-14T01:52:28;13.20;99.90
44215;DHT22;29884;47.450;19.124;2023-06-14T01:54:54;13.20;99.90
44215;DHT22;29884;47.450;19.124;2023-06-14T01:57:20;13.20;99.90
44215;DHT22;29884;47.450;19.124;2023-06-14T01:59:47;13.20;99.90
44215;DHT22;29884;47.450;19.124;2023-06-14T02:02:14;13.10;99.90
44215;DHT22;29884;47.450;19.124;2023-06-14T02:04:41;13.10;99.90
44215;DHT22;29884;47.450;19.124;2023-06-14T02:07:07;13.20;99.90
44215;DHT22;29884;47.450;19.124;2023-06-14T02:09:34;13.20;99.90
44215;DHT22;29884;47.450;19.124;2023-06-14T02:12:00;13.20;99.90
44215;DHT22;29884;47.450;19.124;2023-06-14T02:14:26;13.20;99.90
44215;DHT22;29884;47.450;19.124;2023-06-14T02:16:52;13.20;99.90
44215;DHT22;29884;47.450;19.124;2023-06-14T02:19:19;13.20;99.90
44215;DHT22;29884;47.450;19.124;2023-06-14T02:21:46;13.20;99.90
44215;DHT22;29884;47.450;19.124;2023-06-14T02:24:12;13.10;99.90
44215;DHT22;29884;47.450;19.124;2023-06-14T02:26:38;12.90;99.90
44215;DHT22;29884;47.450;19.124;2023-06-14T02:29:05;13.00;99.90
44215;DHT22;29884;47.450;19.124;2023-06-14T02:31:31;13.00;99.90
44215;DHT22;29884;47.450;19.124;2023-06-14T02:33:57;13.00;99.90
44215;DHT22;29884;47.450;19.124;2023-06-14T02:36:23;13.00;99.90
44215;DHT22;29884;47.450;19.124;2023-06-14T02:38:49;13.00;99.90
44215;DHT22;29884;47.450;19.124;2023-06-14T02:41:15;13.10;99.90
44215;DHT22;29884;47.450;19.124;2023-06-14T02:43:41;13.10;99.90
44215;DHT22;29884;47.450;19.124;2023-06-14T02:46:07;13.00;99.90
44215;DHT22;29884;47.450;19.124;2023-06-14T02:48:33;13.00;99.90
44215;DHT22;29884;47.450;19.124;2023-06-14T02:50:59;13.00;99.90
44215;DHT22;29884;47.450;19.124;2023-06-14T02:53:24;13.00;99.90
44215;DHT22;29884;47.450;19.124;2023-06-14T02:55:50;12.90;99.90
44215;DHT22;29884;47.450;19.124;2023-06-14T02:58:17;12.90;99.90
44215;DHT22;29884;47.450;19.124;2023-06-14T03:00:43;12.90;99.90
44215;DHT22;29884;47.450;19.124;2023-06-14T03:03:09;12.80;99.90
44215;DHT22;29884;47.450;19.124;2023-06-14T03:05:43;12.80;99.90
44215;DHT22;29884;47.450;19.124;2023-06-14T03:08:12;12.90;99.90
44215;DHT22;29884;47.450;19.124;2023-06-14T03:10:43;12.90;99.90
44215;DHT22;29884;47.450;19.124;2023-06-14T03:13:08;12.80;99.90
44215;DHT22;29884;47.450;19.124;2023-06-14T03:15:36;12.90;99.90
44215;DHT22;29884;47.450;19.124;2023-06-14T03:18:02;12.80;99.90
44215;DHT22;29884;47.450;19.124;2023-06-14T03:20:29;12.90;99.90
44215;DHT22;29884;47.450;19.124;2023-06-14T03:23:00;12.80;99.90
44215;DHT22;29884;47.450;19.124;2023-06-14T03:25:26;12.90;99.90
44215;DHT22;29884;47.450;19.124;2023-06-14T03:27:55;12.90;99.90
44215;DHT22;29884;47.450;19.124;2023-06-14T03:30:21;12.90;99.90
44215;DHT22;29884;47.450;19.124;2023-06-14T03:32:47;13.00;99.90
44215;DHT22;29884;47.450;19.124;2023-06-14T03:35:13;13.00;99.90
44215;DHT22;29884;47.450;19.124;2023-06-14T03:37:46;13.20;99.90
44215;DHT22;29884;47.450;19.124;2023-06-14T03:40:15;13.20;99.90
44215;DHT22;29884;47.450;19.124;2023-06-14T03:42:42;13.30;99.90
44215;DHT22;29884;47.450;19.124;2023-06-14T03:45:08;13.40;99.90
44215;DHT22;29884;47.450;19.124;2023-06-14T03:47:34;13.50;99.90
44215;DHT22;29884;47.450;19.124;2023-06-14T03:50:00;13.50;99.90
44215;DHT22;29884;47.450;19.124;2023-06-14T03:52:27;13.50;99.90
44215;DHT22;29884;47.450;19.124;2023-06-14T03:54:53;13.50;99.90
44215;DHT22;29884;47.450;19.124;2023-06-14T03:57:19;13.60;99.90
44215;DHT22;29884;47.450;19.124;2023-06-14T03:59:45;13.60;99.90
44215;DHT22;29884;47.450;19.124;2023-06-14T04:02:12;13.70;99.90
44215;DHT22;29884;47.450;19.124;2023-06-14T04:04:42;13.80;99.90
44215;DHT22;29884;47.450;19.124;2023-06-14T04:07:16;13.90;99.90
44215;DHT22;29884;47.450;19.124;2023-06-14T04:09:45;13.90;99.90
44215;DHT22;29884;47.450;19.124;2023-06-14T04:12:12;14.00;99.90
44215;DHT22;29884;47.450;19.124;2023-06-14T04:14:41;14.00;99.90
44215;DHT22;29884;47.450;19.124;2023-06-14T04:17:07;13.90;99.90
44215;DHT22;29884;47.450;19.124;2023-06-14T04:19:32;13.90;99.90
44215;DHT22;29884;47.450;19.124;2023-06-14T04:21:59;14.10;99.90
44215;DHT22;29884;47.450;19.124;2023-06-14T04:24:28;14.10;99.90
44215;DHT22;29884;47.450;19.124;2023-06-14T04:27:00;14.20;99.90
44215;DHT22;29884;47.450;19.124;2023-06-14T04:29:29;14.20;99.90
44215;DHT22;29884;47.450;19.124;2023-06-14T04:31:56;14.30;99.90
44215;DHT22;29884;47.450;19.124;2023-06-14T04:34:27;14.30;99.90
44215;DHT22;29884;47.450;19.124;2023-06-14T04:36:55;14.40;99.90
44215;DHT22;29884;47.450;19.124;2023-06-14T04:39:22;14.30;99.90
44215;DHT22;29884;47.450;19.124;2023-06-14T04:41:48;14.40;99.90
44215;DHT22;29884;47.450;19.124;2023-06-14T04:44:18;14.40;99.90
44215;DHT22;29884;47.450;19.124;2023-06-14T04:46:45;14.50;99.90
44215;DHT22;29884;47.450;19.124;2023-06-14T04:49:14;14.60;99.90
44215;DHT22;29884;47.450;19.124;2023-06-14T04:51:41;14.60;99.90
44215;DHT22;29884;47.450;19.124;2023-06-14T04:54:08;14.70;99.90
44215;DHT22;29884;47.450;19.124;2023-06-14T04:56:36;14.70;99.90
44215;DHT22;29884;47.450;19.124;2023-06-14T04:59:05;14.80;99.90
44215;DHT22;29884;47.450;19.124;2023-06-14T05:01:31;14.80;99.90
44215;DHT22;29884;47.450;19.124;2023-06-14T05:03:59;14.80;99.90
44215;DHT22;29884;47.450;19.124;2023-06-14T05:06:29;14.80;99.90
44215;DHT22;29884;47.450;19.124;2023-06-14T05:08:55;14.80;99.90
44215;DHT22;29884;47.450;19.124;2023-06-14T05:11:21;14.90;99.90
44215;DHT22;29884;47.450;19.124;2023-06-14T05:13:50;15.00;99.90
44215;DHT22;29884;47.450;19.124;2023-06-14T05:16:16;15.10;99.90
44215;DHT22;29884;47.450;19.124;2023-06-14T05:18:45;15.10;99.90
44215;DHT22;29884;47.450;19.124;2023-06-14T05:21:11;15.30;99.90
44215;DHT22;29884;47.450;19.124;2023-06-14T05:23:37;15.40;99.90
44215;DHT22;29884;47.450;19.124;2023-06-14T05:26:03;15.30;99.90
44215;DHT22;29884;47.450;19.124;2023-06-14T05:28:30;15.40;99.90
44215;DHT22;29884;47.450;19.124;2023-06-14T05:30:56;15.40;99.90
44215;DHT22;29884;47.450;19.124;2023-06-14T05:33:23;15.60;99.90
44215;DHT22;29884;47.450;19.124;2023-06-14T05:35:49;15.60;99.90
44215;DHT22;29884;47.450;19.124;2023-06-14T05:38:15;15.70;99.90
44215;DHT22;29884;47.450;19.124;2023-06-14T05:40:41;15.90;99.90
44215;DHT22;29884;47.450;19.124;2023-06-14T05:43:06;15.90;99.90
44215;DHT22;29884;47.450;19.124;2023-06-14T05:45:32;16.00;99.90
44215;DHT22;29884;47.450;19.124;2023-06-14T05:47:58;16.00;99.90
44215;DHT22;29884;47.450;19.124;2023-06-14T05:50:24;16.00;99.90
44215;DHT22;29884;47.450;19.124;2023-06-14T05:52:49;16.00;99.90
44215;DHT22;29884;47.450;19.124;2023-06-14T05:55:16;16.10;99.90
44215;DHT22;29884;47.450;19.124;2023-06-14T05:57:42;16.20;99.90
44215;DHT22;29884;47.450;19.124;2023-06-14T06:00:08;16.30;99.90
44215;DHT22;29884;47.450;19.124;2023-06-14T06:02:45;16.40;99.90
44215;DHT22;29884;47.450;19.124;2023-06-14T06:05:14;16.30;99.90
44215;DHT22;29884;47.450;19.124;2023-06-14T06:07:41;16.40;99.90
44215;DHT22;29884;47.450;19.124;2023-06-14T06:10:08;16.50;99.90
44215;DHT22;29884;47.450;19.124;2023-06-14T06:12:33;16.50;99.90
44215;DHT22;29884;47.450;19.124;2023-06-14T06:15:00;16.60;99.90
44215;DHT22;29884;47.450;19.124;2023-06-14T06:17:26;16.60;99.90
44215;DHT22;29884;47.450;19.124;2023-06-14T06:19:52;16.70;99.90
44215;DHT22;29884;47.450;19.124;2023-06-14T06:22:18;16.80;99.90
44215;DHT22;29884;47.450;19.124;2023-06-14T06:24:44;17.00;99.90
44215;DHT22;29884;47.450;19.124;2023-06-14T06:27:09;17.10;99.90
44215;DHT22;29884;47.450;19.124;2023-06-14T06:29:36;16.90;99.90
44215;DHT22;29884;47.450;19.124;2023-06-14T06:32:02;16.90;99.90
44215;DHT22;29884;47.450;19.124;2023-06-14T06:34:28;16.90;99.90
44215;DHT22;29884;47.450;19.124;2023-06-14T06:36:53;17.00;99.90
44215;DHT22;29884;47.450;19.124;2023-06-14T06:39:19;17.10;99.90
44215;DHT22;29884;47.450;19.124;2023-06-14T06:41:45;17.10;99.90
44215;DHT22;29884;47.450;19.124;2023-06-14T06:44:11;17.30;99.90
44215;DHT22;29884;47.450;19.124;2023-06-14T06:46:39;17.30;99.90
44215;DHT22;29884;47.450;19.124;2023-06-14T06:49:06;17.50;99.90
44215;DHT22;29884;47.450;19.124;2023-06-14T06:51:32;17.50;99.90
44215;DHT22;29884;47.450;19.124;2023-06-14T06:53:58;17.90;99.90
44215;DHT22;29884;47.450;19.124;2023-06-14T06:56:24;18.10;99.90
44215;DHT22;29884;47.450;19.124;2023-06-14T06:58:50;18.00;99.90
44215;DHT22;29884;47.450;19.124;2023-06-14T07:01:16;17.90;99.90
44215;DHT22;29884;47.450;19.124;2023-06-14T07:03:43;18.00;99.90
44215;DHT22;29884;47.450;19.124;2023-06-14T07:06:08;18.20;99.90
44215;DHT22;29884;47.450;19.124;2023-06-14T07:08:35;18.20;99.90
44215;DHT22;29884;47.450;19.124;2023-06-14T07:11:04;18.40;99.90
44215;DHT22;29884;47.450;19.124;2023-06-14T07:13:30;18.60;99.90
44215;DHT22;29884;47.450;19.124;2023-06-14T07:15:58;18.70;99.90
44215;DHT22;29884;47.450;19.124;2023-06-14T07:18:25;18.80;99.90
44215;DHT22;29884;47.450;19.124;2023-06-14T07:20:51;18.70;99.90
44215;DHT22;29884;47.450;19.124;2023-06-14T07:23:17;18.70;99.90
44215;DHT22;29884;47.450;19.124;2023-06-14T07:25:43;18.80;99.90
44215;DHT22;29884;47.450;19.124;2023-06-14T07:28:09;18.90;99.90
44215;DHT22;29884;47.450;19.124;2023-06-14T07:30:35;18.90;99.90
44215;DHT22;29884;47.450;19.124;2023-06-14T07:33:01;18.90;99.90
44215;DHT22;29884;47.450;19.124;2023-06-14T07:35:26;18.90;99.90
44215;DHT22;29884;47.450;19.124;2023-06-14T07:37:52;18.90;99.90
44215;DHT22;29884;47.450;19.124;2023-06-14T07:40:18;19.00;99.90
44215;DHT22;29884;47.450;19.124;2023-06-14T07:42:44;19.10;99.90
44215;DHT22;29884;47.450;19.124;2023-06-14T07:45:11;19.10;99.90
44215;DHT22;29884;47.450;19.124;2023-06-14T07:47:37;19.00;99.90
44215;DHT22;29884;47.450;19.124;2023-06-14T07:50:03;19.00;99.90
44215;DHT22;29884;47.450;19.124;2023-06-14T07:52:29;18.90;99.90
44215;DHT22;29884;47.450;19.124;2023-06-14T07:54:56;18.90;99.90
44215;DHT22;29884;47.450;19.124;2023-06-14T07:57:22;19.00;99.90
44215;DHT22;29884;47.450;19.124;2023-06-14T07:59:48;19.10;99.90
44215;DHT22;29884;47.450;19.124;2023-06-14T08:02:14;19.20;99.90
44215;DHT22;29884;47.450;19.124;2023-06-14T08:04:40;19.30;99.90
44215;DHT22;29884;47.450;19.124;2023-06-14T08:07:06;19.40;99.90
44215;DHT22;29884;47.450;19.124;2023-06-14T08:09:32;19.50;99.90
44215;DHT22;29884;47.450;19.124;2023-06-14T08:11:58;19.60;99.90
44215;DHT22;29884;47.450;19.124;2023-06-14T08:14:24;19.80;99.90
44215;DHT22;29884;47.450;19.124;2023-06-14T08:16:50;19.90;99.90
44215;DHT22;29884;47.450;19.124;2023-06-14T08:19:15;19.80;99.90
44215;DHT22;29884;47.450;19.124;2023-06-14T08:21:42;20.10;99.90
44215;DHT22;29884;47.450;19.124;2023-06-14T08:24:10;20.20;99.90
44215;DHT22;29884;47.450;19.124;2023-06-14T08:26:38;20.10;99.90
44215;DHT22;29884;47.450;19.124;2023-06-14T08:29:04;19.90;99.90
44215;DHT22;29884;47.450;19.124;2023-06-14T08:31:32;20.00;99.90
44215;DHT22;29884;47.450;19.124;2023-06-14T08:33:58;20.20;99.90
44215;DHT22;29884;47.450;19.124;2023-06-14T08:36:24;20.10;99.90
44215;DHT22;29884;47.450;19.124;2023-06-14T08:38:50;20.20;99.90
44215;DHT22;29884;47.450;19.124;2023-06-14T08:41:21;20.30;99.90
44215;DHT22;29884;47.450;19.124;2023-06-14T08:43:48;20.50;99.90
44215;DHT22;29884;47.450;19.124;2023-06-14T08:46:17;20.50;99.90
44215;DHT22;29884;47.450;19.124;2023-06-14T08:48:47;20.60;99.90
44215;DHT22;29884;47.450;19.124;2023-06-14T08:51:18;20.80;99.90
44215;DHT22;29884;47.450;19.124;2023-06-14T08:53:44;20.60;99.90
44215;DHT22;29884;47.450;19.124;2023-06-14T08:56:11;20.60;99.90
44215;DHT22;29884;47.450;19.124;2023-06-14T08:58:49;20.70;99.90
44215;DHT22;29884;47.450;19.124;2023-06-14T09:01:15;20.70;99.90
44215;DHT22;29884;47.450;19.124;2023-06-14T09:03:43;20.70;99.90
44215;DHT22;29884;47.450;19.124;2023-06-14T09:06:10;20.60;99.90
44215;DHT22;29884;47.450;19.124;2023-06-14T09:08:47;20.80;99.90
44215;DHT22;29884;47.450;19.124;2023-06-14T09:11:15;20.80;99.90
44215;DHT22;29884;47.450;19.124;2023-06-14T09:13:47;20.90;99.90
44215;DHT22;29884;47.450;19.124;2023-06-14T09:16:12;21.00;99.90
44215;DHT22;29884;47.450;19.124;2023-06-14T09:18:44;21.30;99.90
44215;DHT22;29884;47.450;19.124;2023-06-14T09:21:14;21.30;99.90
44215;DHT22;29884;47.450;19.124;2023-06-14T09:23:45;21.30;99.90
44215;DHT22;29884;47.450;19.124;2023-06-14T09:26:12;21.10;99.90
44215;DHT22;29884;47.450;19.124;2023-06-14T09:28:48;21.30;99.90
44215;DHT22;29884;47.450;19.124;2023-06-14T09:31:16;21.40;99.90
44215;DHT22;29884;47.450;19.124;2023-06-14T09:33:42;21.60;99.90
44215;DHT22;29884;47.450;19.124;2023-06-14T09:36:18;21.80;99.90
44215;DHT22;29884;47.450;19.124;2023-06-14T09:38:59;22.20;99.90
44215;DHT22;29884;47.450;19.124;2023-06-14T09:41:35;22.50;99.90
44215;DHT22;29884;47.450;19.124;2023-06-14T09:44:04;22.80;98.90
44215;DHT22;29884;47.450;19.124;2023-06-14T09:46:30;23.00;98.90
44215;DHT22;29884;47.450;19.124;2023-06-14T09:48:57;23.00;97.20
44215;DHT22;29884;47.450;19.124;2023-06-14T09:51:24;23.20;94.60
44215;DHT22;29884;47.450;19.124;2023-06-14T09:53:50;22.60;93.10
44215;DHT22;29884;47.450;19.124;2023-06-14T09:56:27;22.30;94.50
44215;DHT22;29884;47.450;19.124;2023-06-14T09:58:56;22.10;95.70
44215;DHT22;29884;47.450;19.124;2023-06-14T10:01:24;22.00;94.70
44215;DHT22;29884;47.450;19.124;2023-06-14T10:03:55;21.90;95.50
44215;DHT22;29884;47.450;19.124;2023-06-14T10:06:45;22.00;94.80
44215;DHT22;29884;47.450;19.124;2023-06-14T10:09:12;21.90;96.40
44215;DHT22;29884;47.450;19.124;2023-06-14T10:11:38;21.60;95.80
44215;DHT22;29884;47.450;19.124;2023-06-14T10:14:10;21.50;97.40
44215;DHT22;29884;47.450;19.124;2023-06-14T10:16:49;21.60;97.20
44215;DHT22;29884;47.450;19.124;2023-06-14T10:19:28;21.70;96.00
44215;DHT22;29884;47.450;19.124;2023-06-14T10:24:44;22.50;96.10
44215;DHT22;29884;47.450;19.124;2023-06-14T10:27:14;22.80;95.80
44215;DHT22;29884;47.450;19.124;2023-06-14T10:32:22;23.30;92.00
44215;DHT22;29884;47.450;19.124;2023-06-14T10:35:01;23.70;90.70
44215;DHT22;29884;47.450;19.124;2023-06-14T10:37:29;23.50;83.70
44215;DHT22;29884;47.450;19.124;2023-06-14T10:39:55;23.40;79.00
44215;DHT22;29884;47.450;19.124;2023-06-14T10:42:21;23.50;75.80
44215;DHT22;29884;47.450;19.124;2023-06-14T10:44:52;23.70;70.10
44215;DHT22;29884;47.450;19.124;2023-06-14T10:47:34;23.80;70.10
44215;DHT22;29884;47.450;19.124;2023-06-14T10:50:10;24.10;70.20
44215;DHT22;29884;47.450;19.124;2023-06-14T10:52:40;24.60;67.60
44215;DHT22;29884;47.450;19.124;2023-06-14T10:57:41;24.80;65.40
44215;DHT22;29884;47.450;19.124;2023-06-14T11:00:08;24.90;67.80
44215;DHT22;29884;47.450;19.124;2023-06-14T11:05:08;24.90;68.40
44215;DHT22;29884;47.450;19.124;2023-06-14T11:13:03;25.00;60.10
44215;DHT22;29884;47.450;19.124;2023-06-14T11:15:33;24.90;62.30
44215;DHT22;29884;47.450;19.124;2023-06-14T11:18:03;24.70;60.10
44215;DHT22;29884;47.450;19.124;2023-06-14T11:20:32;24.80;60.40
44215;DHT22;29884;47.450;19.124;2023-06-14T11:22:58;24.80;61.00
44215;DHT22;29884;47.450;19.124;2023-06-14T11:25:25;25.30;62.50
44215;DHT22;29884;47.450;19.124;2023-06-14T11:27:52;25.50;60.50
44215;DHT22;29884;47.450;19.124;2023-06-14T11:30:18;25.40;58.10
44215;DHT22;29884;47.450;19.124;2023-06-14T11:32:48;25.80;58.60
44215;DHT22;29884;47.450;19.124;2023-06-14T11:35:15;25.80;57.00
44215;DHT22;29884;47.450;19.124;2023-06-14T11:37:41;25.70;53.70
44215;DHT22;29884;47.450;19.124;2023-06-14T11:40:08;25.70;56.70
44215;DHT22;29884;47.450;19.124;2023-06-14T11:42:39;25.70;58.30
44215;DHT22;29884;47.450;19.124;2023-06-14T11:45:09;25.60;56.40
44215;DHT22;29884;47.450;19.124;2023-06-14T11:47:36;25.60;56.60
44215;DHT22;29884;47.450;19.124;2023-06-14T11:50:04;25.40;56.40
44215;DHT22;29884;47.450;19.124;2023-06-14T11:52:31;25.50;54.80
44215;DHT22;29884;47.450;19.124;2023-06-14T11:54:57;25.80;55.90
44215;DHT22;29884;47.450;19.124;2023-06-14T11:57:24;25.40;56.20
44215;DHT22;29884;47.450;19.124;2023-06-14T11:59:50;25.60;54.80
44215;DHT22;29884;47.450;19.124;2023-06-14T12:02:17;26.10;54.80
44215;DHT22;29884;47.450;19.124;2023-06-14T12:04:44;25.50;52.80
44215;DHT22;29884;47.450;19.124;2023-06-14T12:07:13;25.80;56.70
44215;DHT22;29884;47.450;19.124;2023-06-14T12:12:18;25.90;54.70
44215;DHT22;29884;47.450;19.124;2023-06-14T12:14:43;26.20;54.00
44215;DHT22;29884;47.450;19.124;2023-06-14T12:17:09;26.30;52.60
44215;DHT22;29884;47.450;19.124;2023-06-14T12:19:42;26.30;52.80
44215;DHT22;29884;47.450;19.124;2023-06-14T12:22:14;26.20;51.90
44215;DHT22;29884;47.450;19.124;2023-06-14T12:24:43;26.20;50.70
44215;DHT22;29884;47.450;19.124;2023-06-14T12:27:10;26.40;51.90
44215;DHT22;29884;47.450;19.124;2023-06-14T12:29:44;26.10;49.60
44215;DHT22;29884;47.450;19.124;2023-06-14T12:32:10;26.00;51.50
44215;DHT22;29884;47.450;19.124;2023-06-14T12:34:36;26.10;49.90
44215;DHT22;29884;47.450;19.124;2023-06-14T12:37:02;26.00;51.10
44215;DHT22;29884;47.450;19.124;2023-06-14T12:39:30;26.20;52.30
44215;DHT22;29884;47.450;19.124;2023-06-14T12:41:57;26.20;49.30
44215;DHT22;29884;47.450;19.124;2023-06-14T12:44:23;25.30;50.50
44215;DHT22;29884;47.450;19.124;2023-06-14T12:46:49;25.10;52.20
44215;DHT22;29884;47.450;19.124;2023-06-14T12:49:17;25.10;51.60
44215;DHT22;29884;47.450;19.124;2023-06-14T12:51:43;25.70;52.50
44215;DHT22;29884;47.450;19.124;2023-06-14T12:54:09;26.30;53.20
44215;DHT22;29884;47.450;19.124;2023-06-14T12:56:35;26.60;50.80
44215;DHT22;29884;47.450;19.124;2023-06-14T12:59:01;26.40;50.80
44215;DHT22;29884;47.450;19.124;2023-06-14T13:01:27;26.00;50.50
44215;DHT22;29884;47.450;19.124;2023-06-14T13:03:53;25.40;52.60
44215;DHT22;29884;47.450;19.124;2023-06-14T13:06:22;25.20;54.70
44215;DHT22;29884;47.450;19.124;2023-06-14T13:08:48;24.90;58.40
44215;DHT22;29884;47.450;19.124;2023-06-14T13:11:14;24.80;58.50
44215;DHT22;29884;47.450;19.124;2023-06-14T13:13:40;24.80;58.00
44215;DHT22;29884;47.450;19.124;2023-06-14T13:16:05;24.60;59.20
44215;DHT22;29884;47.450;19.124;2023-06-14T13:18:31;24.30;58.80
44215;DHT22;29884;47.450;19.124;2023-06-14T13:20:57;24.40;60.60
44215;DHT22;29884;47.450;19.124;2023-06-14T13:23:23;24.40;60.70
44215;DHT22;29884;47.450;19.124;2023-06-14T13:25:49;24.40;61.90
44215;DHT22;29884;47.450;19.124;2023-06-14T13:28:17;24.30;61.60
44215;DHT22;29884;47.450;19.124;2023-06-14T13:30:43;24.10;63.10
44215;DHT22;29884;47.450;19.124;2023-06-14T13:33:09;24.20;62.90
44215;DHT22;29884;47.450;19.124;2023-06-14T13:35:35;24.10;63.10
44215;DHT22;29884;47.450;19.124;2023-06-14T13:38:01;24.10;62.80
44215;DHT22;29884;47.450;19.124;2023-06-14T13:40:26;24.30;62.60
44215;DHT22;29884;47.450;19.124;2023-06-14T13:42:52;24.40;61.50
44215;DHT22;29884;47.450;19.124;2023-06-14T13:45:18;24.10;62.10
44215;DHT22;29884;47.450;19.124;2023-06-14T13:47:44;24.10;63.30
44215;DHT22;29884;47.450;19.124;2023-06-14T13:50:10;24.00;63.10
44215;DHT22;29884;47.450;19.124;2023-06-14T13:52:36;24.10;65.90
44215;DHT22;29884;47.450;19.124;2023-06-14T13:55:02;24.20;64.40
44215;DHT22;29884;47.450;19.124;2023-06-14T13:57:28;24.10;65.90
44215;DHT22;29884;47.450;19.124;2023-06-14T13:59:54;24.40;66.70
44215;DHT22;29884;47.450;19.124;2023-06-14T14:02:21;24.30;65.60
44215;DHT22;29884;47.450;19.124;2023-06-14T14:04:47;24.40;64.90
44215;DHT22;29884;47.450;19.124;2023-06-14T14:07:18;24.70;66.30
44215;DHT22;29884;47.450;19.124;2023-06-14T14:09:44;24.70;64.90
44215;DHT22;29884;47.450;19.124;2023-06-14T14:12:10;24.80;65.50
44215;DHT22;29884;47.450;19.124;2023-06-14T14:14:37;25.20;64.30
44215;DHT22;29884;47.450;19.124;2023-06-14T14:17:02;25.20;62.50
44215;DHT22;29884;47.450;19.124;2023-06-14T14:19:29;25.10;62.00
44215;DHT22;29884;47.450;19.124;2023-06-14T14:21:55;24.80;61.30
44215;DHT22;29884;47.450;19.124;2023-06-14T14:24:21;24.50;63.50
44215;DHT22;29884;47.450;19.124;2023-06-14T14:26:47;23.90;64.20
44215;DHT22;29884;47.450;19.124;2023-06-14T14:29:14;24.00;65.00
44215;DHT22;29884;47.450;19.124;2023-06-14T14:31:40;23.90;64.30
44215;DHT22;29884;47.450;19.124;2023-06-14T14:34:05;23.70;64.60
44215;DHT22;29884;47.450;19.124;2023-06-14T14:36:31;23.70;64.90
44215;DHT22;29884;47.450;19.124;2023-06-14T14:38:59;23.80;66.70
44215;DHT22;29884;47.450;19.124;2023-06-14T14:41:24;23.80;65.40
44215;DHT22;29884;47.450;19.124;2023-06-14T14:43:50;23.70;65.20
44215;DHT22;29884;47.450;19.124;2023-06-14T14:46:16;23.50;66.00
44215;DHT22;29884;47.450;19.124;2023-06-14T14:48:42;23.40;66.20
44215;DHT22;29884;47.450;19.124;2023-06-14T14:51:08;23.40;65.60
44215;DHT22;29884;47.450;19.124;2023-06-14T14:53:33;23.40;64.80
44215;DHT22;29884;47.450;19.124;2023-06-14T14:55:59;23.30;64.20
44215;DHT22;29884;47.450;19.124;2023-06-14T14:58:25;23.30;65.10
44215;DHT22;29884;47.450;19.124;2023-06-14T15:00:51;23.30;67.10
44215;DHT22;29884;47.450;19.124;2023-06-14T15:03:17;23.20;65.50
44215;DHT22;29884;47.450;19.124;2023-06-14T15:05:43;23.00;65.20
44215;DHT22;29884;47.450;19.124;2023-06-14T15:08:08;23.00;66.20
44215;DHT22;29884;47.450;19.124;2023-06-14T15:10:40;23.10;65.90
44215;DHT22;29884;47.450;19.124;2023-06-14T15:13:09;23.00;66.00
44215;DHT22;29884;47.450;19.124;2023-06-14T15:15:35;22.80;66.20
44215;DHT22;29884;47.450;19.124;2023-06-14T15:18:02;23.00;66.60
44215;DHT22;29884;47.450;19.124;2023-06-14T15:20:28;22.90;65.00
44215;DHT22;29884;47.450;19.124;2023-06-14T15:22:54;22.80;64.50
44215;DHT22;29884;47.450;19.124;2023-06-14T15:25:28;22.70;64.70
44215;DHT22;29884;47.450;19.124;2023-06-14T15:27:53;22.60;64.50
44215;DHT22;29884;47.450;19.124;2023-06-14T15:30:20;22.50;63.00
44215;DHT22;29884;47.450;19.124;2023-06-14T15:32:46;22.50;64.40
44215;DHT22;29884;47.450;19.124;2023-06-14T15:35:12;22.60;66.30
44215;DHT22;29884;47.450;19.124;2023-06-14T15:37:38;22.50;65.70
44215;DHT22;29884;47.450;19.124;2023-06-14T15:40:05;22.60;64.70